Time;durP1;ratioP1;P1;durP2;ratioP2;P2;SDS_P1;SDS_P2;PMS_P1;PMS_P2;Temp;Humidity;BMP_temperature;BMP_pressure;BME280_temperature;BME280_humidity;BME280_pressure;Samples;Min_cycle;Max_cycle;Signal;HPM_P1;HPM_P2
2022/11/06 00:01:10;;;;;;;13.38;7.78;;;10.10;99.90;;;;;;5036581;28;20052;-74
2022/11/06 00:03:36;;;;;;;15.13;7.93;;;10.10;99.90;;;;;;5036232;28;20077;-74
2022/11/06 00:08:55;;;;;;;13.40;8.30;;;10.10;99.90;;;;;;5036633;28;20045;-74
2022/11/06 00:11:21;;;;;;;14.43;7.63;;;10.10;99.90;;;;;;5036683;28;20050;-74
2022/11/06 00:13:46;;;;;;;12.30;8.30;;;10.10;99.90;;;;;;5036744;28;20459;-74
2022/11/06 00:16:13;;;;;;;14.23;8.00;;;10.10;99.90;;;;;;5035675;28;20049;-73
2022/11/06 00:18:40;;;;;;;12.45;8.32;;;10.00;99.90;;;;;;5036023;28;20057;-73
2022/11/06 00:21:35;;;;;;;14.30;9.43;;;10.00;99.90;;;;;;5036397;28;20045;-73
2022/11/06 00:24:03;;;;;;;16.92;9.38;;;10.00;99.90;;;;;;5018579;28;20358;-74
2022/11/06 00:26:30;;;;;;;14.65;8.93;;;9.90;99.90;;;;;;5018978;28;20046;-74
2022/11/06 00:28:55;;;;;;;13.43;9.38;;;10.40;99.90;;;;;;5035186;28;20056;-74
2022/11/06 00:31:24;;;;;;;15.10;9.73;;;9.90;99.90;;;;;;5035606;28;20095;-74
2022/11/06 00:33:51;;;;;;;16.63;9.80;;;9.80;99.90;;;;;;5036124;28;20093;-74
2022/11/06 00:36:19;;;;;;;16.92;10.23;;;9.90;99.90;;;;;;5036049;28;20051;-73
2022/11/06 00:38:45;;;;;;;16.58;11.20;;;9.80;99.90;;;;;;5035728;28;20115;-74
2022/11/06 00:41:15;;;;;;;16.52;10.88;;;9.80;99.90;;;;;;5035552;28;20045;-73
2022/11/06 00:43:41;;;;;;;17.48;10.90;;;9.70;99.90;;;;;;5036122;28;20370;-73
2022/11/06 00:46:12;;;;;;;22.70;11.43;;;9.70;99.90;;;;;;5018084;28;20378;-73
2022/11/06 00:48:38;;;;;;;18.83;11.60;;;9.70;99.90;;;;;;5035800;28;20052;-74
2022/11/06 00:51:11;;;;;;;18.17;11.85;;;9.60;99.90;;;;;;5035862;28;20112;-74
2022/11/06 00:53:37;;;;;;;20.48;12.65;;;9.60;99.90;;;;;;5035634;28;20053;-74
2022/11/06 00:56:07;;;;;;;18.52;11.45;;;9.60;99.90;;;;;;5035964;28;20045;-74
2022/11/06 00:58:32;;;;;;;14.75;11.23;;;9.60;99.90;;;;;;5036197;28;20037;-73
2022/11/06 01:01:05;;;;;;;17.80;11.98;;;9.60;99.90;;;;;;5032085;28;20042;-73
2022/11/06 01:03:31;;;;;;;16.95;12.65;;;9.60;99.90;;;;;;5016205;28;20188;-74
2022/11/06 01:06:04;;;;;;;23.98;13.70;;;9.50;99.90;;;;;;5015137;28;20112;-73
2022/11/06 01:08:30;;;;;;;19.55;12.77;;;10.10;99.90;;;;;;5015823;28;20354;-75
2022/11/06 01:10:56;;;;;;;18.63;12.07;;;9.50;99.90;;;;;;5015783;28;20054;-73
2022/11/06 01:13:21;;;;;;;21.35;13.90;;;9.50;99.90;;;;;;4997418;28;20050;-73
2022/11/06 01:15:47;;;;;;;22.27;13.63;;;9.50;99.90;;;;;;5023153;28;20068;-75
2022/11/06 01:18:13;;;;;;;26.88;13.30;;;9.50;99.90;;;;;;5018098;28;20049;-74
2022/11/06 01:20:38;;;;;;;19.98;12.43;;;9.50;99.90;;;;;;5035607;28;20045;-74
2022/11/06 01:23:04;;;;;;;21.08;14.02;;;9.50;99.90;;;;;;5018219;28;20084;-73
2022/11/06 01:25:29;;;;;;;20.38;12.20;;;9.60;99.90;;;;;;5035535;28;20054;-73
2022/11/06 01:27:55;;;;;;;21.02;12.48;;;9.50;99.90;;;;;;5035089;28;20041;-73
2022/11/06 01:30:20;;;;;;;21.58;13.32;;;9.50;99.90;;;;;;5034871;28;20049;-73
2022/11/06 01:32:46;;;;;;;20.02;12.95;;;9.50;99.90;;;;;;5035392;28;20132;-73
2022/11/06 01:35:11;;;;;;;18.55;12.90;;;9.40;99.90;;;;;;5018430;28;20041;-73
2022/11/06 01:37:37;;;;;;;20.27;13.57;;;9.40;99.90;;;;;;5035062;28;20546;-74
2022/11/06 01:40:03;;;;;;;19.77;12.82;;;9.50;99.90;;;;;;5035000;28;20365;-74
2022/11/06 01:42:29;;;;;;;20.15;13.85;;;9.40;99.90;;;;;;5035217;28;20049;-74
2022/11/06 01:45:28;;;;;;;18.15;13.00;;;9.40;99.90;;;;;;5034536;28;20045;-74
2022/11/06 01:47:54;;;;;;;20.52;13.20;;;9.40;99.90;;;;;;5034944;28;20189;-74
2022/11/06 01:50:20;;;;;;;20.20;13.63;;;9.60;99.90;;;;;;5034589;28;20049;-73
2022/11/06 01:52:48;;;;;;;17.35;12.75;;;9.40;99.90;;;;;;5035027;28;20049;-73
2022/11/06 01:55:21;;;;;;;15.65;12.68;;;9.40;99.90;;;;;;5034822;28;20457;-75
2022/11/06 01:57:47;;;;;;;19.95;14.02;;;9.40;99.90;;;;;;5034611;28;20049;-73
2022/11/06 02:00:13;;;;;;;21.15;13.23;;;9.40;99.90;;;;;;5034399;28;20052;-74
2022/11/06 02:02:39;;;;;;;20.27;13.50;;;9.40;99.90;;;;;;5034687;28;20045;-74
2022/11/06 02:05:05;;;;;;;20.30;13.15;;;9.40;99.90;;;;;;5017211;28;20037;-74
2022/11/06 02:07:32;;;;;;;22.33;13.88;;;9.40;99.90;;;;;;5017614;28;20080;-74
2022/11/06 02:09:57;;;;;;;19.95;15.18;;;9.40;99.90;;;;;;5001112;28;20145;-74
2022/11/06 02:12:38;;;;;;;21.35;15.32;;;9.40;99.90;;;;;;5035001;28;20424;-73
2022/11/06 02:15:14;;;;;;;23.35;14.05;;;9.40;99.90;;;;;;5034458;28;20359;-74
2022/11/06 02:17:54;;;;;;;17.65;14.13;;;9.40;99.90;;;;;;5035456;28;20425;-73
2022/11/06 02:20:55;;;;;;;25.27;15.82;;;9.40;99.90;;;;;;5034606;28;20033;-73
2022/11/06 02:24:03;;;;;;;22.98;15.07;;;9.40;99.90;;;;;;5034855;28;20041;-72
2022/11/06 02:26:47;;;;;;;26.50;15.30;;;9.40;99.90;;;;;;5034658;28;20115;-74
2022/11/06 02:29:37;;;;;;;23.45;14.57;;;9.30;99.90;;;;;;5016405;28;20114;-74
2022/11/06 02:32:10;;;;;;;28.60;16.58;;;9.30;99.90;;;;;;5034763;28;20045;-75
2022/11/06 02:34:38;;;;;;;22.40;15.43;;;9.30;99.90;;;;;;5034796;28;20050;-74
2022/11/06 02:37:10;;;;;;;19.70;16.30;;;9.30;99.90;;;;;;5017178;28;20466;-73
2022/11/06 02:39:39;;;;;;;26.25;16.50;;;9.30;99.90;;;;;;5034115;28;20088;-73
2022/11/06 02:42:07;;;;;;;22.73;15.40;;;9.60;99.90;;;;;;5017152;28;20357;-74
2022/11/06 02:44:36;;;;;;;21.88;15.88;;;9.30;99.90;;;;;;5016683;28;20041;-73
2022/11/06 02:47:08;;;;;;;23.02;16.35;;;9.30;99.90;;;;;;5037783;28;20191;-75
2022/11/06 02:49:52;;;;;;;22.75;15.63;;;9.30;99.90;;;;;;5037177;28;20122;-74
2022/11/06 02:52:23;;;;;;;;;;;9.30;99.90;;;;;;5038179;28;20049;-73
2022/11/06 02:55:02;;;;;;;24.83;16.83;;;9.30;99.90;;;;;;5038445;28;20214;-72
2022/11/06 02:57:34;;;;;;;19.27;15.10;;;9.30;99.90;;;;;;5037614;28;20049;-73
2022/11/06 03:00:09;;;;;;;19.60;15.77;;;9.30;99.90;;;;;;5037864;28;20049;-73
2022/11/06 03:02:51;;;;;;;29.05;18.52;;;9.30;99.90;;;;;;5020304;28;20049;-75
2022/11/06 03:05:27;;;;;;;27.58;17.55;;;9.30;99.90;;;;;;5038071;28;20107;-73
2022/11/06 03:08:01;;;;;;;25.58;17.98;;;9.30;99.90;;;;;;5038408;28;20058;-74
2022/11/06 03:10:32;;;;;;;25.45;17.00;;;9.30;99.90;;;;;;5037585;28;20046;-73
2022/11/06 03:13:07;;;;;;;24.02;17.27;;;9.30;99.90;;;;;;5037833;28;20056;-72
2022/11/06 03:15:50;;;;;;;27.92;18.88;;;9.30;99.90;;;;;;5037638;28;20046;-75
2022/11/06 03:18:29;;;;;;;28.13;18.75;;;9.30;99.90;;;;;;5019751;28;20084;-74
2022/11/06 03:21:15;;;;;;;24.05;16.88;;;9.20;99.90;;;;;;5037288;28;20049;-74
2022/11/06 03:23:52;;;;;;;31.60;18.85;;;9.40;99.90;;;;;;5019373;28;20064;-75
2022/11/06 03:26:35;;;;;;;23.95;17.30;;;9.50;99.90;;;;;;5019821;28;20053;-73
2022/11/06 03:29:20;;;;;;;22.88;16.70;;;9.20;99.90;;;;;;5037218;28;20041;-74
2022/11/06 03:31:58;;;;;;;23.88;17.30;;;9.20;99.90;;;;;;5036859;28;20053;-72
2022/11/06 03:34:39;;;;;;;27.30;17.63;;;9.20;99.90;;;;;;5036785;28;20053;-73
2022/11/06 03:37:14;;;;;;;22.17;15.82;;;9.20;99.90;;;;;;5037151;28;20045;-73
2022/11/06 03:39:45;;;;;;;27.67;17.63;;;9.20;99.90;;;;;;5037148;28;20053;-73
2022/11/06 03:42:15;;;;;;;22.17;16.98;;;9.20;99.90;;;;;;5037101;28;20064;-73
2022/11/06 03:44:48;;;;;;;28.45;17.23;;;9.20;99.90;;;;;;5036844;28;20118;-73
2022/11/06 03:47:22;;;;;;;25.42;17.08;;;9.30;99.90;;;;;;5037209;28;20049;-72
2022/11/06 03:50:09;;;;;;;22.00;16.65;;;9.20;99.90;;;;;;5036490;28;20056;-73
2022/11/06 03:52:52;;;;;;;24.80;16.15;;;9.20;99.90;;;;;;5036200;28;20060;-75
2022/11/06 03:55:23;;;;;;;25.13;16.55;;;9.30;99.90;;;;;;5036725;28;20069;-73
2022/11/06 03:57:57;;;;;;;22.48;15.82;;;9.20;99.90;;;;;;5036677;28;20049;-74
2022/11/06 04:00:23;;;;;;;25.08;16.52;;;9.20;99.90;;;;;;5037002;28;20118;-73
2022/11/06 04:03:03;;;;;;;23.73;17.23;;;9.20;99.90;;;;;;5036465;28;20468;-73
2022/11/06 04:05:33;;;;;;;23.10;15.73;;;9.20;99.90;;;;;;5036090;28;20045;-73
2022/11/06 04:16:21;;;;;;;21.20;14.48;;;9.20;99.90;;;;;;5035827;28;20136;-73
2022/11/06 04:18:46;;;;;;;25.52;15.60;;;9.30;99.90;;;;;;5036551;28;20056;-75
2022/11/06 04:21:26;;;;;;;18.73;14.23;;;9.20;99.90;;;;;;5036282;28;20124;-74
2022/11/06 04:27:27;;;;;;;21.88;15.23;;;9.10;99.90;;;;;;5036061;28;20053;-73
2022/11/06 04:30:11;;;;;;;25.85;14.38;;;9.20;99.90;;;;;;5036273;28;20046;-72
2022/11/06 04:32:45;;;;;;;19.90;13.77;;;9.10;99.90;;;;;;5036031;28;20115;-75
2022/11/06 04:35:31;;;;;;;26.45;15.88;;;9.10;99.90;;;;;;5035944;28;20053;-74
2022/11/06 04:38:24;;;;;;;23.50;15.13;;;9.10;99.90;;;;;;5035868;28;20488;-73
2022/11/06 04:41:33;;;;;;;22.02;13.30;;;9.10;99.90;;;;;;5035579;28;20053;-74
2022/11/06 04:44:07;;;;;;;23.38;14.25;;;9.20;99.90;;;;;;5036230;28;20427;-73
2022/11/06 04:46:44;;;;;;;20.48;13.77;;;9.20;99.90;;;;;;5035731;28;20133;-74
2022/11/06 04:49:11;;;;;;;19.30;12.35;;;9.20;99.90;;;;;;5036076;28;20416;-74
2022/11/06 04:51:38;;;;;;;20.60;13.32;;;9.20;99.90;;;;;;5035514;28;20116;-74
2022/11/06 04:54:07;;;;;;;17.33;12.57;;;9.20;99.90;;;;;;5035973;28;20049;-74
2022/11/06 04:56:35;;;;;;;24.27;14.77;;;9.20;99.90;;;;;;5018061;28;20060;-73
2022/11/06 04:59:02;;;;;;;23.08;12.63;;;9.20;99.90;;;;;;5017234;28;20466;-72
2022/11/06 05:01:28;;;;;;;21.85;13.25;;;9.20;99.90;;;;;;5016221;28;20366;-72
2022/11/06 05:03:54;;;;;;;18.95;11.70;;;9.20;99.90;;;;;;5015618;28;20112;-72
2022/11/06 05:06:20;;;;;;;20.52;12.63;;;9.20;99.90;;;;;;5016061;28;20053;-73
2022/11/06 05:08:45;;;;;;;15.70;11.63;;;9.20;99.90;;;;;;5015476;28;20125;-73
2022/11/06 05:11:11;;;;;;;19.08;12.13;;;9.20;99.90;;;;;;5031189;28;20557;-73
2022/11/06 05:13:37;;;;;;;24.65;13.48;;;9.20;99.90;;;;;;5035389;28;20041;-73
2022/11/06 05:16:03;;;;;;;22.67;13.05;;;9.20;99.90;;;;;;5035552;28;20093;-73
2022/11/06 05:18:29;;;;;;;19.85;11.50;;;9.20;99.90;;;;;;5017916;28;20473;-74
2022/11/06 05:23:46;;;;;;;18.08;10.95;;;9.20;99.90;;;;;;5035542;28;20062;-74
2022/11/06 05:26:12;;;;;;;17.73;10.95;;;9.20;99.90;;;;;;5034884;28;20041;-73
2022/11/06 05:28:37;;;;;;;16.23;11.38;;;9.40;99.90;;;;;;5034849;28;20037;-72
2022/11/06 05:31:04;;;;;;;19.15;11.32;;;9.20;99.90;;;;;;5034605;28;20037;-73
2022/11/06 05:33:30;;;;;;;20.98;11.63;;;9.20;99.90;;;;;;5035164;28;20428;-73
2022/11/06 05:35:55;;;;;;;18.00;11.05;;;9.20;99.90;;;;;;5034999;28;20489;-72
2022/11/06 05:38:21;;;;;;;16.58;9.77;;;9.20;99.90;;;;;;5035178;28;20037;-74
2022/11/06 05:40:47;;;;;;;18.95;10.82;;;9.20;99.90;;;;;;5034396;28;20053;-73
2022/11/06 05:43:12;;;;;;;16.38;9.32;;;9.20;99.90;;;;;;5035314;28;20060;-72
2022/11/06 05:45:38;;;;;;;19.35;10.45;;;9.20;99.90;;;;;;5017865;28;20130;-73
2022/11/06 05:48:04;;;;;;;21.92;10.50;;;9.20;99.90;;;;;;5017289;28;20462;-73
2022/11/06 05:50:29;;;;;;;15.32;9.90;;;9.20;99.90;;;;;;5034971;28;20045;-74
2022/11/06 05:52:55;;;;;;;17.45;9.70;;;9.20;99.90;;;;;;5034883;28;20041;-73
2022/11/06 05:55:20;;;;;;;20.60;11.00;;;9.20;99.90;;;;;;5017285;28;20125;-73
2022/11/06 05:57:46;;;;;;;22.10;10.88;;;9.20;99.90;;;;;;5034728;28;20412;-72
2022/11/06 06:00:12;;;;;;;17.50;9.95;;;9.20;99.90;;;;;;5034745;28;20586;-73
2022/11/06 06:02:38;;;;;;;19.52;9.88;;;9.20;99.90;;;;;;5034824;28;20114;-72
2022/11/06 06:05:05;;;;;;;21.45;11.05;;;9.20;99.90;;;;;;5034588;28;20129;-73
2022/11/06 06:07:31;;;;;;;20.83;9.23;;;9.20;99.90;;;;;;5017654;28;20132;-74
2022/11/06 06:09:57;;;;;;;15.95;8.75;;;9.30;99.90;;;;;;5034569;28;20033;-72
2022/11/06 06:12:25;;;;;;;17.70;9.57;;;9.20;99.90;;;;;;5035433;28;20053;-73
2022/11/06 06:14:53;;;;;;;20.55;9.13;;;9.20;99.90;;;;;;5034620;28;20114;-73
2022/11/06 06:17:19;;;;;;;15.63;9.15;;;9.20;99.90;;;;;;5034659;28;20174;-72
2022/11/06 06:19:47;;;;;;;23.25;8.70;;;9.30;99.90;;;;;;5018189;28;20104;-72
2022/11/06 06:22:13;;;;;;;14.75;7.95;;;9.20;99.90;;;;;;5039303;28;20497;-73
2022/11/06 06:24:38;;;;;;;17.63;8.70;;;9.20;99.90;;;;;;5019958;28;20057;-73
2022/11/06 06:27:04;;;;;;;20.02;9.10;;;9.20;99.90;;;;;;5021849;28;20049;-74
2022/11/06 06:29:30;;;;;;;17.90;8.70;;;9.30;99.90;;;;;;5021655;28;20042;-73
2022/11/06 06:31:55;;;;;;;18.65;8.65;;;9.30;99.90;;;;;;5038405;28;20072;-73
2022/11/06 06:34:21;;;;;;;16.95;8.18;;;9.30;99.90;;;;;;5020962;28;20103;-73
2022/11/06 06:36:51;;;;;;;18.33;8.15;;;9.60;99.90;;;;;;5037686;28;20046;-73
2022/11/06 06:39:18;;;;;;;18.05;8.73;;;9.30;99.90;;;;;;5031326;28;20038;-72
2022/11/06 06:41:44;;;;;;;18.55;8.95;;;9.30;99.90;;;;;;5028345;28;20050;-72
2022/11/06 06:44:10;;;;;;;15.00;7.75;;;9.30;99.90;;;;;;5038467;28;20056;-72
2022/11/06 06:46:36;;;;;;;17.67;7.50;;;9.30;99.90;;;;;;5007036;28;20474;-72
2022/11/06 06:49:02;;;;;;;19.33;7.82;;;9.30;99.90;;;;;;5019825;28;20125;-70
2022/11/06 06:51:27;;;;;;;16.45;7.78;;;9.30;99.90;;;;;;5018492;28;20057;-72
2022/11/06 06:53:53;;;;;;;23.05;7.78;;;9.30;99.90;;;;;;5017023;28;20095;-72
2022/11/06 06:56:18;;;;;;;16.25;7.63;;;9.40;99.90;;;;;;5033049;28;20033;-73
2022/11/06 06:58:44;;;;;;;18.75;7.45;;;9.40;99.90;;;;;;5037490;28;20045;-72
2022/11/06 07:01:10;;;;;;;16.85;7.75;;;9.40;99.90;;;;;;5020206;28;20045;-72
2022/11/06 07:03:37;;;;;;;17.92;8.05;;;9.50;99.90;;;;;;5037686;28;20045;-71
2022/11/06 07:06:03;;;;;;;17.40;7.28;;;9.70;99.90;;;;;;5037992;28;20045;-73
2022/11/06 07:08:29;;;;;;;15.43;7.30;;;9.60;99.90;;;;;;5019815;28;20088;-73
2022/11/06 07:10:59;;;;;;;15.68;6.90;;;9.50;99.90;;;;;;5037105;28;20095;-71
2022/11/06 07:13:24;;;;;;;17.23;6.40;;;9.80;99.90;;;;;;5004088;28;20068;-72
2022/11/06 07:15:50;;;;;;;16.27;7.60;;;9.60;99.90;;;;;;5037357;28;20057;-71
2022/11/06 07:18:16;;;;;;;17.55;6.60;;;9.60;99.90;;;;;;5020235;28;20049;-73
2022/11/06 07:20:41;;;;;;;19.77;7.40;;;9.60;99.90;;;;;;5037500;28;20134;-72
2022/11/06 07:23:08;;;;;;;18.95;6.57;;;10.00;99.90;;;;;;5019780;28;20037;-73
2022/11/06 07:25:34;;;;;;;16.38;6.63;;;9.70;99.90;;;;;;5037107;28;20045;-73
2022/11/06 07:28:01;;;;;;;14.77;5.72;;;9.80;99.90;;;;;;5036780;28;20053;-72
2022/11/06 07:30:28;;;;;;;15.80;6.47;;;9.90;99.90;;;;;;5037119;28;20434;-73
2022/11/06 07:32:53;;;;;;;14.75;6.00;;;10.10;99.90;;;;;;5037284;28;20118;-74
2022/11/06 07:35:19;;;;;;;13.25;5.90;;;9.90;99.90;;;;;;5037351;28;20458;-73
2022/11/06 07:37:44;;;;;;;12.43;5.70;;;10.00;99.90;;;;;;5019808;28;20053;-74
2022/11/06 07:40:10;;;;;;;17.40;6.50;;;9.90;99.90;;;;;;5020025;28;20081;-72
2022/11/06 07:42:36;;;;;;;13.55;5.20;;;10.00;99.90;;;;;;5036694;28;20045;-74
2022/11/06 07:45:02;;;;;;;12.27;5.70;;;10.10;99.90;;;;;;5019693;28;20355;-73
2022/11/06 07:47:30;;;;;;;10.25;5.43;;;10.10;99.90;;;;;;5036691;28;20049;-73
2022/11/06 07:49:56;;;;;;;15.40;5.15;;;10.20;99.90;;;;;;5019644;28;20041;-73
2022/11/06 07:52:21;;;;;;;12.38;5.05;;;10.30;99.90;;;;;;5036918;28;20046;-72
2022/11/06 07:54:47;;;;;;;14.68;5.00;;;10.30;99.90;;;;;;5036825;28;20057;-73
2022/11/06 07:57:13;;;;;;;12.30;4.43;;;10.40;99.90;;;;;;5036680;28;20049;-74
2022/11/06 07:59:39;;;;;;;15.73;5.70;;;10.30;99.90;;;;;;5036442;28;20099;-70
2022/11/06 08:02:04;;;;;;;13.13;5.35;;;10.30;99.90;;;;;;5036508;28;20039;-71
2022/11/06 08:04:30;;;;;;;17.35;5.35;;;10.30;99.90;;;;;;5036465;28;20052;-70
2022/11/06 08:06:58;;;;;;;11.70;5.20;;;10.20;99.90;;;;;;5034649;28;20067;-70
2022/11/06 08:09:24;;;;;;;14.73;5.00;;;10.20;99.90;;;;;;5028219;28;20041;-70
2022/11/06 08:11:50;;;;;;;13.20;4.75;;;10.20;99.90;;;;;;5026625;28;20132;-70
2022/11/06 08:14:16;;;;;;;15.70;5.30;;;10.20;99.90;;;;;;5036735;28;20068;-71
2022/11/06 08:16:41;;;;;;;13.38;5.05;;;10.10;99.90;;;;;;5035221;28;20049;-71
2022/11/06 08:19:07;;;;;;;9.45;4.97;;;10.10;99.90;;;;;;5018235;28;20122;-70
2022/11/06 08:21:33;;;;;;;15.65;5.70;;;10.10;99.90;;;;;;5035920;28;20049;-68
2022/11/06 08:23:58;;;;;;;13.82;5.15;;;10.20;99.90;;;;;;5035613;28;20049;-70
2022/11/06 08:26:24;;;;;;;18.75;5.90;;;10.20;99.90;;;;;;5035841;28;20138;-70
2022/11/06 08:28:49;;;;;;;13.52;4.82;;;10.30;99.90;;;;;;5018307;28;20064;-69
2022/11/06 08:31:15;;;;;;;12.90;5.05;;;10.20;99.90;;;;;;5035822;28;20054;-68
2022/11/06 08:33:41;;;;;;;11.20;4.70;;;10.20;99.90;;;;;;5018189;28;20049;-68
2022/11/06 08:36:08;;;;;;;13.13;4.82;;;10.30;99.90;;;;;;5018545;28;20369;-68
2022/11/06 08:38:35;;;;;;;14.00;5.80;;;10.30;99.90;;;;;;5018545;28;20049;-68
2022/11/06 08:41:09;;;;;;;10.63;5.65;;;10.20;99.90;;;;;;5035756;28;20057;-70
2022/11/06 08:43:35;;;;;;;13.80;5.15;;;10.40;99.90;;;;;;5035007;28;20037;-69
2022/11/06 08:46:02;;;;;;;15.25;4.57;;;10.20;99.90;;;;;;5035688;28;20453;-69
2022/11/06 08:48:28;;;;;;;11.70;4.65;;;10.20;99.90;;;;;;5035189;28;20037;-69
2022/11/06 08:50:54;;;;;;;11.32;4.45;;;10.20;99.90;;;;;;5035488;28;20108;-70
2022/11/06 08:53:19;;;;;;;19.00;5.68;;;10.30;99.90;;;;;;5035214;28;20052;-69
2022/11/06 08:55:45;;;;;;;16.08;4.78;;;10.40;99.90;;;;;;5018632;28;20130;-69
2022/11/06 08:58:10;;;;;;;12.15;4.53;;;10.30;99.90;;;;;;5018416;28;20080;-70
2022/11/06 09:00:36;;;;;;;13.38;4.65;;;10.30;99.90;;;;;;5035391;28;20084;-69
2022/11/06 09:03:09;;;;;;;13.80;4.45;;;10.40;99.90;;;;;;5034938;28;20041;-73
2022/11/06 09:05:37;;;;;;;16.63;5.05;;;10.60;99.90;;;;;;5035264;28;20064;-72
2022/11/06 09:08:03;;;;;;;12.60;4.20;;;10.40;99.90;;;;;;5035183;28;20417;-74
2022/11/06 09:10:29;;;;;;;13.25;4.43;;;10.40;99.90;;;;;;5017524;28;20041;-72
2022/11/06 09:12:57;;;;;;;14.52;4.70;;;10.40;99.90;;;;;;5039350;28;20059;-72
2022/11/06 09:15:23;;;;;;;11.80;4.53;;;10.50;99.90;;;;;;5017978;28;20052;-72
2022/11/06 09:17:50;;;;;;;13.65;4.45;;;10.50;99.90;;;;;;5020904;28;20049;-71
2022/11/06 09:20:18;;;;;;;14.63;4.47;;;10.50;99.90;;;;;;5017464;28;20442;-70
2022/11/06 09:22:44;;;;;;;11.65;4.47;;;10.60;99.90;;;;;;5017495;28;20049;-70
2022/11/06 09:25:10;;;;;;;9.68;3.65;;;10.70;99.90;;;;;;5017836;28;20049;-71
2022/11/06 09:27:48;;;;;;;9.98;3.83;;;11.10;99.90;;;;;;5034964;28;20064;-72
2022/11/06 09:30:16;;;;;;;11.35;4.18;;;10.90;99.90;;;;;;5034812;28;20056;-73
2022/11/06 09:32:49;;;;;;;10.57;3.72;;;11.00;99.90;;;;;;5034875;28;20053;-74
2022/11/06 09:35:16;;;;;;;14.20;3.78;;;11.00;99.90;;;;;;5034748;28;20049;-75
2022/11/06 09:37:42;;;;;;;12.35;3.90;;;11.20;99.90;;;;;;5034768;28;20095;-70
2022/11/06 09:40:18;;;;;;;14.45;4.03;;;11.10;99.90;;;;;;5034221;28;20058;-72
2022/11/06 09:43:25;;;;;;;13.82;4.28;;;11.20;99.90;;;;;;5034768;28;20116;-70
2022/11/06 09:45:53;;;;;;;11.68;4.07;;;11.30;99.90;;;;;;5007682;28;20398;-69
2022/11/06 09:48:22;;;;;;;10.50;3.75;;;11.40;99.90;;;;;;5034676;28;20125;-72
2022/11/06 09:50:54;;;;;;;8.95;3.60;;;11.60;99.90;;;;;;5034521;28;20121;-70
2022/11/06 09:53:36;;;;;;;9.40;3.90;;;11.70;99.90;;;;;;5016847;28;20050;-69
2022/11/06 09:56:04;;;;;;;11.05;3.80;;;11.90;99.90;;;;;;5037235;28;20386;-72
2022/11/06 09:58:37;;;;;;;10.18;3.33;;;12.10;99.90;;;;;;5021028;28;20459;-72
2022/11/06 10:01:19;;;;;;;12.43;3.78;;;12.30;99.90;;;;;;5038947;28;20064;-70
2022/11/06 10:04:05;;;;;;;9.23;3.05;;;12.30;99.90;;;;;;5038706;28;20033;-74
2022/11/06 10:06:32;;;;;;;10.52;3.55;;;12.30;99.90;;;;;;5038441;28;20042;-71
2022/11/06 10:09:04;;;;;;;11.32;3.45;;;12.30;99.90;;;;;;5038517;28;20045;-71
2022/11/06 10:11:51;;;;;;;14.00;3.38;;;12.30;99.90;;;;;;5038231;28;20041;-70
2022/11/06 10:14:39;;;;;;;8.65;3.10;;;12.30;99.90;;;;;;5038054;28;20372;-73
2022/11/06 10:17:26;;;;;;;9.02;2.83;;;12.30;99.90;;;;;;5038220;28;20061;-72
2022/11/06 10:20:06;;;;;;;9.48;3.40;;;12.40;99.90;;;;;;5038279;28;20045;-71
2022/11/06 10:22:39;;;;;;;9.63;3.28;;;12.40;99.90;;;;;;5037717;28;20452;-71
2022/11/06 10:25:39;;;;;;;10.57;2.80;;;12.60;99.90;;;;;;5037999;28;20041;-72
2022/11/06 10:28:27;;;;;;;8.80;2.60;;;12.50;99.90;;;;;;5014895;28;20069;-70
2022/11/06 10:31:23;;;;;;;9.82;2.80;;;12.50;99.90;;;;;;5037912;28;20064;-70
2022/11/06 10:34:00;;;;;;;10.52;2.90;;;12.60;99.90;;;;;;5037652;28;20045;-69
2022/11/06 10:36:35;;;;;;;10.48;2.78;;;12.70;99.90;;;;;;5020531;28;20111;-68
2022/11/06 10:39:09;;;;;;;12.15;3.53;;;12.80;99.90;;;;;;5037464;28;20112;-71
2022/11/06 10:41:37;;;;;;;7.13;2.53;;;12.70;99.90;;;;;;5037920;28;20357;-69
2022/11/06 10:44:13;;;;;;;8.30;2.63;;;12.70;99.90;;;;;;5038132;28;20107;-72
2022/11/06 10:46:48;;;;;;;9.70;2.80;;;12.70;99.90;;;;;;5037526;28;20049;-71
2022/11/06 10:49:28;;;;;;;9.80;2.70;;;12.70;99.90;;;;;;5003941;28;20114;-71
2022/11/06 10:52:15;;;;;;;11.30;2.88;;;12.80;99.90;;;;;;5037200;28;20049;-71
2022/11/06 10:54:49;;;;;;;9.88;2.90;;;12.70;99.90;;;;;;5024829;28;20133;-71
2022/11/06 10:57:44;;;;;;;10.32;2.70;;;12.80;99.90;;;;;;5048769;28;20135;-72
2022/11/06 11:00:14;;;;;;;7.40;2.58;;;12.70;99.90;;;;;;5020020;28;20659;-72
2022/11/06 11:02:46;;;;;;;9.55;3.20;;;12.70;99.90;;;;;;5037464;28;20397;-71
2022/11/06 11:05:15;;;;;;;12.05;3.80;;;12.70;99.90;;;;;;5037488;28;20050;-71
2022/11/06 11:07:43;;;;;;;9.65;3.10;;;12.80;99.90;;;;;;5036857;28;20069;-70
2022/11/06 11:10:29;;;;;;;12.68;3.08;;;12.80;99.90;;;;;;5037458;28;20052;-69
2022/11/06 11:12:59;;;;;;;12.70;2.75;;;12.80;99.90;;;;;;5019506;28;20064;-75
2022/11/06 11:15:27;;;;;;;7.38;2.95;;;12.90;99.90;;;;;;5036764;28;20462;-73
2022/11/06 11:18:13;;;;;;;9.63;3.08;;;12.80;99.90;;;;;;5020258;28;20128;-70
2022/11/06 11:20:41;;;;;;;10.20;3.75;;;12.80;99.90;;;;;;5035401;28;20075;-72
2022/11/06 11:23:18;;;;;;;10.30;3.40;;;12.70;99.90;;;;;;5035075;28;20064;-71
2022/11/06 11:25:47;;;;;;;24.52;16.30;;;12.60;99.90;;;;;;5026705;28;20048;-68
2022/11/06 11:28:27;;;;;;;12.05;3.53;;;12.60;99.90;;;;;;5023226;28;20053;-71
2022/11/06 11:30:59;;;;;;;12.52;7.47;;;12.50;99.90;;;;;;5037060;28;20049;-71
2022/11/06 11:33:25;;;;;;;17.98;10.43;;;12.50;99.90;;;;;;5037081;28;20049;-71
2022/11/06 11:35:53;;;;;;;15.18;9.15;;;12.40;99.90;;;;;;5036707;28;20100;-72
2022/11/06 11:38:20;;;;;;;17.13;8.65;;;12.50;99.90;;;;;;5036829;28;20037;-70
2022/11/06 11:40:46;;;;;;;9.27;3.92;;;12.40;99.90;;;;;;5036985;28;20378;-71
2022/11/06 11:43:18;;;;;;;9.70;3.83;;;12.50;99.90;;;;;;5036536;28;20084;-70
2022/11/06 11:46:04;;;;;;;12.27;4.30;;;12.30;99.90;;;;;;5019053;28;20124;-70
2022/11/06 11:48:52;;;;;;;11.25;4.05;;;12.20;99.90;;;;;;5035929;28;20362;-69
2022/11/06 11:51:27;;;;;;;12.40;4.93;;;12.10;99.90;;;;;;5036242;28;20088;-69
2022/11/06 11:54:05;;;;;;;13.80;3.78;;;12.00;99.90;;;;;;5023075;28;20038;-68
2022/11/06 11:56:31;;;;;;;11.15;3.80;;;12.00;99.90;;;;;;5019094;28;20464;-71
2022/11/06 11:59:02;;;;;;;10.48;3.53;;;12.00;99.90;;;;;;5035950;28;20057;-70
2022/11/06 12:01:38;;;;;;;7.85;3.97;;;12.00;99.90;;;;;;5036647;28;20069;-68
2022/11/06 12:04:12;;;;;;;10.38;4.25;;;12.00;99.90;;;;;;5036555;28;20045;-71
2022/11/06 12:06:53;;;;;;;10.93;3.95;;;12.00;99.90;;;;;;5035893;28;20041;-70
2022/11/06 12:09:19;;;;;;;10.38;4.10;;;12.10;99.90;;;;;;5027985;28;20053;-71
2022/11/06 12:11:46;;;;;;;12.77;3.92;;;12.10;99.90;;;;;;5029356;28;20049;-71
2022/11/06 12:14:26;;;;;;;10.70;4.10;;;12.20;99.90;;;;;;5025114;28;20046;-69
2022/11/06 12:16:57;;;;;;;8.30;4.30;;;12.40;99.90;;;;;;5032972;28;20132;-66
2022/11/06 12:19:27;;;;;;;9.48;3.97;;;12.30;99.90;;;;;;5034785;28;20049;-70
2022/11/06 12:21:57;;;;;;;8.60;4.15;;;12.30;99.90;;;;;;5018264;28;20053;-70
2022/11/06 12:24:45;;;;;;;11.15;3.50;;;12.40;99.90;;;;;;5022440;28;20132;-70
2022/11/06 12:27:25;;;;;;;7.15;2.58;;;12.50;99.90;;;;;;5035465;28;20045;-71
2022/11/06 12:30:11;;;;;;;10.57;4.90;;;12.60;99.90;;;;;;5027382;28;20109;-71
2022/11/06 12:33:01;;;;;;;9.82;2.78;;;12.70;99.90;;;;;;5021636;28;20049;-69
2022/11/06 12:35:30;;;;;;;9.48;3.00;;;12.80;99.90;;;;;;5035617;28;20048;-70
2022/11/06 12:38:02;;;;;;;9.57;3.20;;;13.00;99.90;;;;;;5022045;28;20127;-70
2022/11/06 12:40:59;;;;;;;10.85;2.92;;;13.20;99.90;;;;;;5035551;28;20120;-70
2022/11/06 12:43:47;;;;;;;8.27;2.42;;;13.30;99.90;;;;;;5004784;28;20421;-70
2022/11/06 12:46:34;;;;;;;8.98;2.47;;;13.40;99.90;;;;;;5035670;28;20041;-69
2022/11/06 12:49:12;;;;;;;8.52;2.53;;;13.40;99.90;;;;;;5033338;28;20041;-71
2022/11/06 12:51:55;;;;;;;7.53;2.45;;;13.40;99.90;;;;;;5028706;28;20081;-70
2022/11/06 12:54:28;;;;;;;6.80;2.67;;;13.40;99.90;;;;;;5017781;28;20056;-69
2022/11/06 12:57:08;;;;;;;9.80;4.10;;;13.30;99.90;;;;;;5034536;28;20048;-69
2022/11/06 12:59:46;;;;;;;8.80;2.70;;;13.30;99.90;;;;;;5028006;28;20363;-70
2022/11/06 13:02:27;;;;;;;10.15;2.78;;;13.30;99.90;;;;;;5031242;28;20045;-69
2022/11/06 13:05:17;;;;;;;9.32;3.15;;;13.20;99.90;;;;;;5034991;28;20049;-67
2022/11/06 13:08:18;;;;;;;7.75;2.95;;;13.10;99.90;;;;;;5034972;28;20118;-71
2022/11/06 13:11:08;;;;;;;10.95;3.20;;;12.90;99.90;;;;;;5034886;28;20496;-69
2022/11/06 13:13:50;;;;;;;10.48;3.50;;;12.80;99.90;;;;;;5017256;28;20056;-69
2022/11/06 13:16:20;;;;;;;8.82;3.67;;;12.90;99.90;;;;;;5034873;28;20065;-71
2022/11/06 13:19:20;;;;;;;10.05;3.10;;;12.80;99.90;;;;;;5034583;28;20046;-70
2022/11/06 13:22:03;;;;;;;7.72;2.70;;;12.70;99.90;;;;;;5001414;28;20129;-71